createdAt,value
2022-10-08T00:00:30.960Z,17.38
2022-10-08T00:10:55.234Z,17.36
2022-10-08T00:15:58.346Z,17.34
2022-10-08T00:21:17.439Z,17.24
2022-10-08T00:26:23.745Z,17.27
2022-10-08T00:31:32.044Z,17.26
2022-10-08T00:37:25.992Z,17.27
2022-10-08T00:42:28.353Z,17.19
2022-10-08T00:47:33.401Z,17.16
2022-10-08T00:52:42.450Z,17.15
2022-10-08T00:57:50.293Z,17.14
2022-10-08T01:02:54.127Z,16.96
2022-10-08T01:08:04.892Z,16.95
2022-10-08T01:13:16.042Z,16.94
2022-10-08T01:18:22.545Z,16.92
2022-10-08T01:23:30.769Z,16.86
2022-10-08T01:28:35.490Z,16.86
2022-10-08T01:33:41.231Z,16.85
2022-10-08T01:38:46.564Z,16.76
2022-10-08T01:43:51.995Z,16.73
2022-10-08T01:49:02.930Z,16.69
2022-10-08T01:54:11.063Z,16.71
2022-10-08T01:59:13.332Z,16.74
2022-10-08T02:04:35.941Z,16.71
2022-10-08T02:09:39.994Z,16.63
2022-10-08T02:14:47.526Z,16.56
2022-10-08T02:20:00.330Z,16.55
2022-10-08T02:25:10.334Z,16.57
2022-10-08T02:30:13.270Z,16.57
2022-10-08T02:35:19.454Z,16.48
2022-10-08T02:40:22.977Z,16.50
2022-10-08T02:45:29.340Z,16.40
2022-10-08T02:50:36.274Z,16.42
2022-10-08T02:55:41.383Z,16.36
2022-10-08T03:00:57.626Z,16.42
2022-10-08T03:06:03.133Z,16.43
2022-10-08T03:11:08.425Z,16.42
2022-10-08T03:16:14.465Z,16.37
2022-10-08T03:21:19.314Z,16.35
2022-10-08T03:26:28.736Z,16.40
2022-10-08T03:31:31.076Z,16.34
2022-10-08T03:36:33.364Z,16.33
2022-10-08T03:41:35.583Z,16.34
2022-10-08T03:46:38.553Z,16.38
2022-10-08T03:51:41.702Z,16.43
2022-10-08T03:56:46.836Z,16.50
2022-10-08T04:01:52.777Z,16.50
2022-10-08T04:06:55.541Z,16.54
2022-10-08T04:11:57.842Z,16.56
2022-10-08T04:17:02.412Z,16.48
2022-10-08T04:22:06.808Z,16.46
2022-10-08T04:27:11.443Z,16.42
2022-10-08T04:32:14.701Z,16.42
2022-10-08T04:37:17.018Z,16.35
2022-10-08T04:42:21.606Z,16.31
2022-10-08T04:47:23.917Z,16.25
2022-10-08T04:52:29.787Z,16.24
2022-10-08T04:57:32.087Z,16.18
2022-10-08T05:02:35.220Z,16.15
2022-10-08T05:07:38.586Z,16.18
2022-10-08T05:12:41.645Z,16.20
2022-10-08T05:17:44.013Z,16.19
2022-10-08T05:22:47.911Z,16.23
2022-10-08T05:27:50.322Z,16.08
2022-10-08T05:32:55.751Z,16.14
2022-10-08T05:37:58.009Z,16.27
2022-10-08T05:43:00.375Z,16.45
2022-10-08T05:48:02.729Z,16.65
2022-10-08T05:53:09.094Z,16.78
2022-10-08T05:58:11.635Z,16.90
2022-10-08T06:08:32.159Z,17.04
2022-10-08T06:13:39.990Z,17.36
2022-10-08T06:18:43.226Z,17.63
2022-10-08T06:23:49.494Z,18.00
2022-10-08T06:28:54.008Z,18.33
2022-10-08T06:34:10.996Z,18.58
2022-10-08T06:39:14.842Z,18.85
2022-10-08T06:44:19.355Z,19.00
2022-10-08T06:49:26.665Z,19.31
2022-10-08T06:54:31.361Z,19.62
2022-10-08T06:59:33.801Z,19.78
2022-10-08T07:04:37.349Z,19.52
2022-10-08T07:09:39.584Z,19.64
2022-10-08T07:14:41.941Z,20.14
2022-10-08T07:19:44.171Z,20.12
2022-10-08T07:24:48.507Z,20.59
2022-10-08T07:29:50.776Z,20.69
2022-10-08T07:34:59.289Z,20.70
2022-10-08T07:40:04.392Z,20.71
2022-10-08T07:45:09.762Z,20.33
2022-10-08T07:50:11.988Z,20.40
2022-10-08T07:55:22.046Z,20.46
2022-10-08T08:00:26.369Z,20.99
2022-10-08T08:05:34.724Z,21.02
2022-10-08T08:10:37.014Z,21.23
2022-10-08T08:15:39.310Z,21.34
2022-10-08T08:20:44.677Z,21.37
2022-10-08T08:25:54.498Z,20.82
2022-10-08T08:31:09.561Z,21.15
2022-10-08T08:36:11.824Z,21.18
2022-10-08T08:41:37.310Z,21.16
2022-10-08T08:46:42.043Z,21.08
2022-10-08T08:51:44.457Z,21.33
2022-10-08T08:56:48.054Z,21.10
2022-10-08T09:01:54.248Z,21.44
2022-10-08T09:07:03.320Z,21.47
2022-10-08T09:12:27.099Z,21.43
2022-10-08T09:18:01.786Z,21.49
2022-10-08T09:23:10.567Z,21.21
2022-10-08T09:28:34.855Z,21.38
2022-10-08T09:33:45.197Z,21.52
2022-10-08T09:38:57.493Z,21.44
2022-10-08T09:44:27.233Z,21.65
2022-10-08T09:49:31.283Z,21.93
2022-10-08T09:54:35.791Z,22.03
2022-10-08T09:59:41.702Z,22.08
2022-10-08T10:04:45.957Z,21.88
2022-10-08T10:09:51.050Z,22.09
2022-10-08T10:14:56.611Z,22.13
2022-10-08T10:26:24.145Z,22.11
2022-10-08T10:31:33.242Z,21.67
2022-10-08T10:36:39.160Z,21.88
2022-10-08T10:41:59.691Z,21.65
2022-10-08T10:47:03.287Z,21.66
2022-10-08T10:52:33.909Z,21.67
2022-10-08T10:57:55.961Z,21.77
2022-10-08T11:03:35.269Z,21.77
2022-10-08T11:08:47.936Z,21.79
2022-10-08T11:14:05.652Z,21.80
2022-10-08T11:19:19.972Z,21.67
2022-10-08T11:24:40.340Z,21.73
2022-10-08T11:29:46.153Z,21.62
2022-10-08T11:34:57.176Z,21.87
2022-10-08T11:40:02.270Z,21.84
2022-10-08T11:45:23.416Z,21.87
2022-10-08T11:50:25.895Z,21.73
2022-10-08T11:55:33.457Z,21.79
2022-10-08T12:00:37.108Z,21.85
2022-10-08T12:05:50.292Z,21.78
2022-10-08T12:10:53.789Z,21.80
2022-10-08T12:15:57.455Z,21.95
2022-10-08T12:21:23.405Z,21.82
2022-10-08T12:26:28.582Z,21.68
2022-10-08T12:31:39.554Z,21.66
2022-10-08T12:36:49.943Z,21.64
2022-10-08T12:42:04.166Z,21.92
2022-10-08T12:47:15.706Z,21.69
2022-10-08T12:52:28.014Z,21.46
2022-10-08T12:57:34.658Z,21.66
2022-10-08T13:02:43.111Z,21.43
2022-10-08T13:07:50.606Z,21.59
2022-10-08T13:13:03.923Z,21.46
2022-10-08T13:18:18.266Z,21.25
2022-10-08T13:23:33.095Z,21.05
2022-10-08T13:28:59.482Z,20.97
2022-10-08T13:34:06.247Z,20.86
2022-10-08T13:39:19.016Z,21.07
2022-10-08T13:44:23.470Z,21.00
2022-10-08T13:49:29.202Z,21.05
2022-10-08T13:54:32.448Z,20.94
2022-10-08T13:59:41.765Z,21.07
2022-10-08T14:04:46.926Z,21.27
2022-10-08T14:09:51.886Z,21.31
2022-10-08T14:15:01.352Z,21.07
2022-10-08T14:20:03.793Z,20.98
2022-10-08T14:25:18.314Z,21.02
2022-10-08T14:30:20.624Z,21.20
2022-10-08T14:35:24.728Z,20.92
2022-10-08T14:40:28.991Z,20.73
2022-10-08T14:45:33.454Z,20.77
2022-10-08T14:50:50.406Z,20.71
2022-10-08T14:56:11.690Z,20.71
2022-10-08T15:01:17.595Z,20.93
2022-10-08T15:06:26.668Z,21.12
2022-10-08T15:11:28.994Z,20.99
2022-10-08T15:16:32.410Z,20.93
2022-10-08T15:21:42.187Z,20.99
2022-10-08T15:26:44.541Z,20.82
2022-10-08T15:31:57.814Z,20.64
2022-10-08T15:37:00.547Z,20.73
2022-10-08T15:42:08.687Z,20.60
2022-10-08T15:47:13.267Z,20.58
2022-10-08T15:52:18.352Z,20.39
2022-10-08T15:57:21.803Z,20.11
2022-10-08T16:02:24.521Z,19.97
2022-10-08T16:07:28.142Z,19.84
2022-10-08T16:12:34.533Z,19.78
2022-10-08T16:17:36.884Z,19.72
2022-10-08T16:22:39.358Z,19.51
2022-10-08T16:27:41.782Z,19.34
2022-10-08T16:32:44.737Z,19.27
2022-10-08T16:37:47.309Z,19.14
2022-10-08T16:42:50.671Z,19.01
2022-10-08T16:47:54.591Z,18.93
2022-10-08T16:52:56.960Z,18.78
2022-10-08T16:58:05.080Z,18.73
2022-10-08T17:03:08.419Z,18.61
2022-10-08T17:08:10.658Z,18.44
2022-10-08T17:13:19.344Z,18.37
2022-10-08T17:18:24.651Z,18.47
2022-10-08T17:23:36.134Z,18.29
2022-10-08T17:28:44.495Z,18.35
2022-10-08T17:33:50.497Z,18.21
2022-10-08T17:38:56.672Z,18.14
2022-10-08T17:44:00.405Z,18.18
2022-10-08T17:49:04.316Z,18.05
2022-10-08T17:54:12.896Z,18.08
2022-10-08T17:59:18.337Z,17.93
2022-10-08T18:04:24.164Z,17.92
2022-10-08T18:09:26.375Z,17.87
2022-10-08T18:14:28.610Z,17.81
2022-10-08T18:19:32.673Z,17.82
2022-10-08T18:24:35.028Z,17.80
2022-10-08T18:29:39.562Z,17.80
2022-10-08T18:34:42.756Z,17.73
2022-10-08T18:39:45.738Z,17.72
2022-10-08T18:44:48.052Z,17.68
2022-10-08T18:49:53.010Z,17.63
2022-10-08T18:54:56.340Z,17.60
2022-10-08T18:59:58.682Z,17.57
2022-10-08T19:05:03.316Z,17.62
2022-10-08T19:10:05.766Z,17.50
2022-10-08T19:15:09.650Z,17.41
2022-10-08T19:20:12.739Z,17.42
2022-10-08T19:25:18.335Z,17.39
2022-10-08T19:30:25.243Z,17.29
2022-10-08T19:35:30.116Z,17.33
2022-10-08T19:40:35.319Z,17.28
2022-10-08T19:45:40.613Z,17.24
2022-10-08T19:50:42.925Z,17.20
2022-10-08T19:55:45.265Z,17.15
2022-10-08T20:00:57.330Z,16.99
2022-10-08T20:06:07.454Z,17.00
2022-10-08T20:11:21.968Z,16.81
2022-10-08T20:16:30.140Z,16.88
2022-10-08T20:21:39.872Z,16.90
2022-10-08T20:26:42.768Z,17.08
2022-10-08T20:31:46.699Z,16.92
2022-10-08T20:36:50.888Z,16.95
2022-10-08T20:41:54.031Z,16.95
2022-10-08T20:46:56.329Z,16.95
2022-10-08T20:52:01.491Z,16.90
2022-10-08T20:57:03.893Z,17.13
2022-10-08T21:02:07.901Z,16.94
2022-10-08T21:07:13.052Z,16.78
2022-10-08T21:12:16.344Z,16.76
2022-10-08T21:17:19.812Z,16.67
2022-10-08T21:22:22.185Z,16.51
2022-10-08T21:27:24.471Z,16.49
2022-10-08T21:32:26.667Z,16.51
2022-10-08T21:37:30.912Z,16.54
2022-10-08T21:42:33.848Z,16.56
2022-10-08T21:47:36.169Z,16.58
2022-10-08T21:52:38.445Z,16.60
2022-10-08T21:57:43.181Z,16.59
2022-10-08T22:02:46.954Z,16.54
2022-10-08T22:07:49.637Z,16.55
2022-10-08T22:12:52.027Z,16.54
2022-10-08T22:17:57.758Z,16.40
2022-10-08T22:23:00.158Z,16.34
2022-10-08T22:28:03.312Z,16.32
2022-10-08T22:33:09.108Z,16.33
2022-10-08T22:38:11.940Z,16.38
2022-10-08T22:43:15.298Z,16.42
2022-10-08T22:48:19.778Z,16.47
2022-10-08T22:53:22.070Z,16.47
2022-10-08T22:58:24.438Z,16.39
2022-10-08T23:03:32.063Z,16.44
2022-10-08T23:08:36.429Z,16.38
2022-10-08T23:13:48.778Z,16.38
2022-10-08T23:18:55.060Z,16.24
2022-10-08T23:23:57.484Z,16.28
2022-10-08T23:29:00.377Z,16.34
2022-10-08T23:39:31.582Z,16.23
2022-10-08T23:44:35.227Z,16.13
2022-10-08T23:49:46.127Z,16.15
2022-10-08T23:55:03.319Z,16.21
